Silverthorne, CO

7:17 PM MDT on August 30, 2015 (GMT -0600)
Summit County | | Change Station
CLOSE
Current Station
Personal Weather Station
Location: Dillon, CO
Elevation: 9000 ft
Nearby Weather Stations

Elev 9000 ft 39.64 °N, 106.09 °W | Updated 5 seconds ago

Mostly Cloudy
Mostly Cloudy
67.8 °F
Feels Like 67.8 °F
N
4.9
Wind Variable Wind from SSE
Gusts 10.0 mph

Today
High -- | Low -- °F
--% Chance of Precip.
Yesterday
High -- | Low -- °F
Precip. -- in
6:30 AM 7:38 PM
Full, 98% visible
Pressure 30.39 in
Visibility 10.0 miles
Clouds Mostly Cloudy 9000 ft
Dew Point 38 °F
Humidity 34%
Rainfall 0.00 in
Snow Depth Not available.
UV 0 out of 12
Pollen 10.60 out of 12
Air Quality Not available.
Flu Activity Not available.
SPECI KLXV 310108Z AUTO 31011G16KT 10SM BKN090 16/03 A3039 RMK AO2 LTG DSNT NW T01560033
Pressure 30.39 in
Visibility 10.0 miles
Clouds Mostly Cloudy 9000 ft
Dew Point 38 °F
Humidity 34%
Rainfall 0.00 in
Snow Depth Not available.
UV 0 out of 12
Pollen 10.60 out of 12
Air Quality Not available.
Flu Activity Not available.
SPECI KLXV 310108Z AUTO 31011G16KT 10SM BKN090 16/03 A3039 RMK AO2 LTG DSNT NW T01560033
Nowcast | as of 5:24 PM MDT on August 30, 2015

Isolated showers and thunderstorms will continue to move northeast across the north central mountains...High Mountain valleys and northern foothills of Larimer County through 7 PM. Expect brief rain and gusty winds to 35 mph with the showers.

×

10-Day Weather Forecast

×

Almanac

Astronomy

Aug. 30, 2015 Rise Set
Actual Time
Civil Twilight
Nautical Twilight
Astronomical Twilight
Moon
Length of Visible Light
Length of Day
Tomorrow will be .
, % of the Moon is Illuminated

Today's Extremes

State Highs State Lows

Community

WunderPhotos

Upload Photos

1,851,131 photos uploaded!

WunderBlogs® & News

Nearby

Air Quality

  Air Quality AQ Index Pollutant
Not available.

Snow Depth

Station Depth Elevation

Earthquake Activity

City Distance Mag. Time & Date
Minimum magnitude displayed is 2.5.

Coastal Water Temperatures

Place Temperature

Stations

Nearby Weather Stations

Station Location Temp. Windchill Dew Point Humidity Wind Precip. Elev Updated Type